createdAt,value
2019-04-01T00:00:09.711Z,25.47
2019-04-01T00:02:39.199Z,25.50
2019-04-01T00:05:09.721Z,27.20
2019-04-01T00:07:38.969Z,26.93
2019-04-01T00:10:08.052Z,27.77
2019-04-01T00:12:37.125Z,26.63
2019-04-01T00:15:06.264Z,25.87
2019-04-01T00:17:36.975Z,26.10
2019-04-01T00:20:06.310Z,24.23
2019-04-01T00:22:35.390Z,26.40
2019-04-01T00:25:04.416Z,26.97
2019-04-01T00:27:33.524Z,24.57
2019-04-01T00:30:02.579Z,26.97
2019-04-01T00:32:31.658Z,29.53
2019-04-01T00:35:01.024Z,26.17
2019-04-01T00:37:30.184Z,27.30
2019-04-01T00:40:01.763Z,25.90
2019-04-01T00:42:35.918Z,26.83
2019-04-01T00:45:07.971Z,25.00
2019-04-01T00:47:37.100Z,28.57
2019-04-01T00:50:06.420Z,23.47
2019-04-01T00:52:39.829Z,26.03
2019-04-01T00:55:10.273Z,27.37
2019-04-01T00:57:39.413Z,26.33
2019-04-01T01:00:10.999Z,26.33
2019-04-01T01:02:42.901Z,29.70
2019-04-01T01:05:17.726Z,27.43
2019-04-01T01:07:49.172Z,26.97
2019-04-01T01:10:22.913Z,26.13
2019-04-01T01:12:57.654Z,26.63
2019-04-01T01:15:26.949Z,25.77
2019-04-01T01:17:55.993Z,25.20
2019-04-01T01:20:25.039Z,27.10
2019-04-01T01:22:55.179Z,26.00
2019-04-01T01:25:24.336Z,23.40
2019-04-01T01:27:53.370Z,25.73
2019-04-01T01:30:26.552Z,24.50
2019-04-01T01:32:55.965Z,26.53
2019-04-01T01:35:25.142Z,25.47
2019-04-01T01:37:54.199Z,25.10
2019-04-01T01:40:23.260Z,25.80
2019-04-01T01:42:52.305Z,26.13
2019-04-01T01:45:24.388Z,23.17
2019-04-01T01:47:53.434Z,23.43
2019-04-01T01:50:22.559Z,24.60
2019-04-01T01:52:51.830Z,26.00
2019-04-01T01:55:24.072Z,23.50
2019-04-01T01:57:53.655Z,24.80
2019-04-01T02:00:27.047Z,26.83
2019-04-01T02:02:59.861Z,25.50
2019-04-01T02:05:27.812Z,22.13
2019-04-01T02:08:02.692Z,26.60
2019-04-01T02:10:40.916Z,26.50
2019-04-01T02:13:10.033Z,25.77
2019-04-01T02:15:41.000Z,24.53
2019-04-01T02:18:10.149Z,25.77
2019-04-01T02:20:42.232Z,25.93
2019-04-01T02:23:11.296Z,25.20
2019-04-01T02:25:40.398Z,24.80
2019-04-01T02:28:09.532Z,22.50
2019-04-01T02:30:38.574Z,25.00
2019-04-01T02:33:09.036Z,23.70
2019-04-01T02:35:42.579Z,23.80
2019-04-01T02:38:16.427Z,22.63
2019-04-01T02:40:50.633Z,23.60
2019-04-01T02:43:19.749Z,24.47
2019-04-01T02:45:48.882Z,22.50
2019-04-01T02:48:17.913Z,25.80
2019-04-01T02:50:47.024Z,22.73
2019-04-01T02:53:16.197Z,22.07
2019-04-01T02:55:49.069Z,24.57
2019-04-01T02:58:25.434Z,22.33
2019-04-01T03:00:54.472Z,23.80
2019-04-01T03:03:23.539Z,24.30
2019-04-01T03:05:54.242Z,24.90
2019-04-01T03:08:26.378Z,22.43
2019-04-01T03:10:55.453Z,21.83
2019-04-01T03:13:24.515Z,23.67
2019-04-01T03:15:53.594Z,22.73
2019-04-01T03:18:23.022Z,24.13
2019-04-01T03:20:54.494Z,23.67
2019-04-01T03:23:29.732Z,23.90
2019-04-01T03:25:58.819Z,23.80
2019-04-01T03:28:27.942Z,22.90
2019-04-01T03:30:56.994Z,22.77
2019-04-01T03:33:26.063Z,25.17
2019-04-01T03:35:55.116Z,25.37
2019-04-01T03:38:27.634Z,23.47
2019-04-01T03:41:04.103Z,23.80
2019-04-01T03:43:36.202Z,23.00
2019-04-01T03:46:08.368Z,22.90
2019-04-01T03:48:37.470Z,24.33
2019-04-01T03:51:06.499Z,24.73
2019-04-01T03:53:35.568Z,20.37
2019-04-01T03:56:04.816Z,24.87
2019-04-01T03:58:35.023Z,24.03
2019-04-01T04:01:05.640Z,25.27
2019-04-01T04:03:40.820Z,23.13
2019-04-01T04:06:09.864Z,23.90
2019-04-01T04:08:41.802Z,23.87
2019-04-01T04:11:10.967Z,22.73
2019-04-01T04:13:40.027Z,23.67
2019-04-01T04:16:09.464Z,24.67
2019-04-01T04:18:41.585Z,27.30
2019-04-01T04:21:12.223Z,23.40
2019-04-01T04:23:41.278Z,21.77
2019-04-01T04:26:10.388Z,25.47
2019-04-01T04:28:40.002Z,23.00
2019-04-01T04:31:12.512Z,22.17
2019-04-01T04:33:41.560Z,23.80
2019-04-01T04:36:12.868Z,26.20
2019-04-01T04:38:42.071Z,24.47
2019-04-01T04:41:11.123Z,22.30
2019-04-01T04:43:45.335Z,24.97
2019-04-01T04:46:14.737Z,21.93
2019-04-01T04:48:46.875Z,26.10
2019-04-01T04:51:15.979Z,24.70
2019-04-01T04:53:47.430Z,23.20
2019-04-01T04:56:18.271Z,23.30
2019-04-01T04:58:52.158Z,25.17
2019-04-01T05:01:21.239Z,27.27
2019-04-01T05:03:50.319Z,27.13
2019-04-01T05:06:19.504Z,23.67
2019-04-01T05:08:49.937Z,25.43
2019-04-01T05:11:20.795Z,23.27
2019-04-01T05:13:54.002Z,23.20
2019-04-01T05:16:27.159Z,21.93
2019-04-01T05:19:03.332Z,25.33
2019-04-01T05:21:35.627Z,22.90
2019-04-01T05:24:04.758Z,26.07
2019-04-01T05:26:40.868Z,23.90
2019-04-01T05:29:10.686Z,26.03
2019-04-01T05:31:40.001Z,25.70
2019-04-01T05:34:17.066Z,25.67
2019-04-01T05:36:47.056Z,25.40
2019-04-01T05:39:16.105Z,26.67
2019-04-01T05:41:48.613Z,25.13
2019-04-01T05:44:19.953Z,26.93
2019-04-01T05:46:49.326Z,24.20
2019-04-01T05:49:18.615Z,26.17
2019-04-01T05:51:47.960Z,24.60
2019-04-01T05:54:19.967Z,24.60
2019-04-01T05:56:52.071Z,22.27
2019-04-01T05:59:21.340Z,24.10
2019-04-01T06:01:51.883Z,26.10
2019-04-01T06:04:21.796Z,26.23
2019-04-01T06:06:50.853Z,23.50
2019-04-01T06:09:21.706Z,22.30
2019-04-01T06:12:05.859Z,24.47
2019-04-01T06:14:45.396Z,24.50
2019-04-01T06:17:06.490Z,24.07
2019-04-01T06:19:35.531Z,23.47
2019-04-01T06:22:08.428Z,25.03
2019-04-01T06:24:41.289Z,21.10
2019-04-01T06:27:11.203Z,22.53
2019-04-01T06:29:42.117Z,24.47
2019-04-01T06:32:16.447Z,24.00
2019-04-01T06:34:52.702Z,23.50
2019-04-01T06:37:19.887Z,23.30
2019-04-01T06:39:52.720Z,24.10
2019-04-01T06:42:24.586Z,26.20
2019-04-01T06:44:56.677Z,24.50
2019-04-01T06:47:30.795Z,24.13
2019-04-01T06:49:59.872Z,26.10
2019-04-01T06:52:29.034Z,23.50
2019-04-01T06:54:58.051Z,26.10
2019-04-01T06:57:29.483Z,23.17
2019-04-01T06:59:58.581Z,24.87
2019-04-01T07:02:30.127Z,24.13
2019-04-01T07:04:59.244Z,25.70
2019-04-01T07:07:32.869Z,24.00
2019-04-01T07:10:04.728Z,25.93
2019-04-01T07:12:34.937Z,26.07
2019-04-01T07:15:06.340Z,24.07
2019-04-01T07:17:38.321Z,24.50
2019-04-01T07:20:13.836Z,27.37
2019-04-01T07:22:44.576Z,25.80
2019-04-01T07:25:13.787Z,24.87
2019-04-01T07:27:43.202Z,22.93
2019-04-01T07:30:13.821Z,24.70
2019-04-01T07:32:48.898Z,25.47
2019-04-01T07:35:18.028Z,25.63
2019-04-01T07:37:49.608Z,23.77
2019-04-01T07:40:21.205Z,25.03
2019-04-01T07:42:50.460Z,25.43
2019-04-01T07:45:20.779Z,25.20
2019-04-01T07:47:52.327Z,26.27
2019-04-01T07:50:21.616Z,26.30
2019-04-01T07:52:55.250Z,26.70
2019-04-01T07:55:24.416Z,24.93
2019-04-01T07:57:59.887Z,24.60
2019-04-01T08:00:29.084Z,23.53
2019-04-01T08:03:02.685Z,25.63
2019-04-01T08:05:31.785Z,27.30
2019-04-01T08:08:01.567Z,27.30
2019-04-01T08:10:38.321Z,26.33
2019-04-01T08:13:09.362Z,26.97
2019-04-01T08:15:38.437Z,24.47
2019-04-01T08:18:07.505Z,27.60
2019-04-01T08:20:36.574Z,25.33
2019-04-01T08:23:05.594Z,27.30
2019-04-01T08:25:34.783Z,25.00
2019-04-01T08:28:06.325Z,27.13
2019-04-01T08:30:35.448Z,29.47
2019-04-01T08:33:04.782Z,24.90
2019-04-01T08:35:37.012Z,27.47
2019-04-01T08:38:08.787Z,24.33
2019-04-01T08:40:37.925Z,27.33
2019-04-01T08:43:08.118Z,25.77
2019-04-01T08:45:37.445Z,25.20
2019-04-01T08:48:09.642Z,25.40
2019-04-01T08:50:41.828Z,26.27
2019-04-01T08:53:10.963Z,28.03
2019-04-01T08:55:41.238Z,26.27
2019-04-01T08:58:11.134Z,29.20
2019-04-01T09:00:40.157Z,25.07
2019-04-01T09:03:12.769Z,25.93
2019-04-01T09:05:45.022Z,26.30
2019-04-01T09:08:15.904Z,26.73
2019-04-01T09:10:46.564Z,27.83
2019-04-01T09:13:18.339Z,28.53
2019-04-01T09:15:52.342Z,28.40
2019-04-01T09:18:26.566Z,24.70
2019-04-01T09:20:55.598Z,27.83
2019-04-01T09:23:24.669Z,25.27
2019-04-01T09:25:58.353Z,27.27
2019-04-01T09:28:30.161Z,26.93
2019-04-01T09:31:01.764Z,26.00
2019-04-01T09:33:30.839Z,28.07
2019-04-01T09:36:00.011Z,26.60
2019-04-01T09:38:29.064Z,27.57
2019-04-01T09:40:58.554Z,25.03
2019-04-01T09:43:27.614Z,27.80
2019-04-01T09:45:58.174Z,25.70
2019-04-01T09:48:31.165Z,27.23
2019-04-01T09:51:00.324Z,25.50
2019-04-01T09:53:29.738Z,28.40
2019-04-01T09:56:03.158Z,26.53
2019-04-01T09:58:35.339Z,25.87
2019-04-01T10:01:13.618Z,24.67
2019-04-01T10:03:42.894Z,28.27
2019-04-01T10:06:12.062Z,26.20
2019-04-01T10:08:42.954Z,27.00
2019-04-01T10:11:12.883Z,26.13
2019-04-01T10:13:42.103Z,28.30
2019-04-01T10:16:12.997Z,27.97
2019-04-01T10:18:42.100Z,27.13
2019-04-01T10:21:12.302Z,25.50
2019-04-01T10:23:41.487Z,25.87
2019-04-01T10:26:13.970Z,27.70
2019-04-01T10:28:43.311Z,27.67
2019-04-01T10:31:13.607Z,27.80
2019-04-01T10:33:43.552Z,27.50
2019-04-01T10:36:12.897Z,25.83
2019-04-01T10:38:46.485Z,28.30
2019-04-01T10:41:13.952Z,29.37
2019-04-01T10:43:43.082Z,27.30
2019-04-01T10:46:14.263Z,27.47
2019-04-01T10:48:45.604Z,26.63
2019-04-01T10:51:14.857Z,25.90
2019-04-01T10:53:44.037Z,25.37
2019-04-01T10:56:13.188Z,25.33
2019-04-01T10:58:42.347Z,24.20
2019-04-01T11:01:13.936Z,25.13
2019-04-01T11:03:43.436Z,27.37
2019-04-01T11:06:15.638Z,25.97
2019-04-01T11:08:46.244Z,26.17
2019-04-01T11:11:17.123Z,27.57
2019-04-01T11:13:51.707Z,25.60
2019-04-01T11:16:20.443Z,28.77
2019-04-01T11:18:49.621Z,25.17
2019-04-01T11:21:20.236Z,27.37
2019-04-01T11:23:49.745Z,26.27
2019-04-01T11:26:19.081Z,26.83
2019-04-01T11:28:53.844Z,25.17
2019-04-01T11:31:23.165Z,26.33
2019-04-01T11:33:53.988Z,26.80
2019-04-01T11:36:23.119Z,26.30
2019-04-01T11:38:52.547Z,27.10
2019-04-01T11:41:22.278Z,24.50
2019-04-01T11:43:52.535Z,23.70
2019-04-01T11:46:23.217Z,24.53
2019-04-01T11:48:52.570Z,25.80
2019-04-01T11:51:32.535Z,25.23
2019-04-01T11:53:53.901Z,26.80
2019-04-01T11:56:29.253Z,24.93
2019-04-01T11:59:01.597Z,23.83
2019-04-01T12:01:30.665Z,22.37
2019-04-01T12:03:59.799Z,27.73
2019-04-01T12:06:30.246Z,28.20
2019-04-01T12:09:07.024Z,24.33
2019-04-01T12:11:42.146Z,22.80
2019-04-01T12:14:12.301Z,25.77
2019-04-01T12:16:47.873Z,23.47
2019-04-01T12:19:20.048Z,24.27
2019-04-01T12:21:49.217Z,25.33
2019-04-01T12:24:18.299Z,24.83
2019-04-01T12:26:48.880Z,22.00
2019-04-01T12:29:17.918Z,25.30
2019-04-01T12:31:49.654Z,25.13
2019-04-01T12:34:18.975Z,25.10
2019-04-01T12:36:50.583Z,22.80
2019-04-01T12:39:20.186Z,24.53
2019-04-01T12:41:51.730Z,23.20
2019-04-01T12:44:20.950Z,23.77
2019-04-01T12:46:51.180Z,23.83
2019-04-01T12:49:23.837Z,24.00
2019-04-01T12:51:58.592Z,24.00
2019-04-01T12:54:31.446Z,22.30
2019-04-01T12:57:00.573Z,24.50
2019-04-01T12:59:32.370Z,24.27
2019-04-01T13:02:02.641Z,22.77
2019-04-01T13:04:31.718Z,24.90
2019-04-01T13:07:04.830Z,25.00
2019-04-01T13:09:32.218Z,26.20
2019-04-01T13:12:04.431Z,24.70
2019-04-01T13:14:40.070Z,23.80
2019-04-01T13:17:08.871Z,24.10
2019-04-01T13:19:38.031Z,20.30
2019-04-01T13:22:09.155Z,25.63
2019-04-01T13:24:38.878Z,24.30
2019-04-01T13:27:09.304Z,25.40
2019-04-01T13:29:42.875Z,24.23
2019-04-01T13:32:12.059Z,22.47
2019-04-01T13:34:42.494Z,20.70
2019-04-01T13:37:14.160Z,20.50
2019-04-01T13:39:46.268Z,22.23
2019-04-01T13:42:17.736Z,21.20
2019-04-01T13:44:49.387Z,20.80
2019-04-01T13:47:22.140Z,21.90
2019-04-01T13:50:00.451Z,22.10
2019-04-01T13:52:30.598Z,23.57
2019-04-01T13:55:03.178Z,22.90
2019-04-01T13:57:30.671Z,21.93
2019-04-01T14:00:03.725Z,23.07
2019-04-01T14:02:35.788Z,20.13
2019-04-01T14:05:06.271Z,20.17
2019-04-01T14:07:35.921Z,22.13
2019-04-01T14:10:06.133Z,18.97
2019-04-01T14:12:35.329Z,20.90
2019-04-01T14:15:04.980Z,20.00
2019-04-01T14:17:34.223Z,20.60
2019-04-01T14:20:05.214Z,19.03
2019-04-01T14:22:34.259Z,20.67
2019-04-01T14:25:07.130Z,19.10
2019-04-01T14:27:39.264Z,21.07
2019-04-01T14:30:08.847Z,20.63
2019-04-01T14:32:44.549Z,20.73
2019-04-01T14:35:15.859Z,20.90
2019-04-01T14:37:46.352Z,20.97
2019-04-01T14:40:22.022Z,20.73
2019-04-01T14:42:53.691Z,20.40
2019-04-01T14:45:23.101Z,18.90
2019-04-01T14:47:57.833Z,20.53
2019-04-01T14:50:37.795Z,20.20
2019-04-01T14:53:07.840Z,19.50
2019-04-01T14:55:37.027Z,19.10
2019-04-01T14:58:07.931Z,18.90
2019-04-01T15:00:40.127Z,18.70
2019-04-01T15:03:10.192Z,19.77
2019-04-01T15:05:39.567Z,20.30
2019-04-01T15:08:08.640Z,19.67
2019-04-01T15:10:41.013Z,20.33
2019-04-01T15:13:11.891Z,19.20
2019-04-01T15:15:41.478Z,19.70
2019-04-01T15:18:10.639Z,19.00
2019-04-01T15:20:39.696Z,18.83
2019-04-01T15:23:08.742Z,20.23
2019-04-01T15:25:37.946Z,17.93
2019-04-01T15:28:07.954Z,19.23
2019-04-01T15:30:37.027Z,18.70
2019-04-01T15:33:06.081Z,19.77
2019-04-01T15:35:35.646Z,18.80
2019-04-01T15:38:10.098Z,19.40
2019-04-01T15:40:39.182Z,18.70
2019-04-01T15:43:08.255Z,19.40
2019-04-01T15:45:37.344Z,17.57
2019-04-01T15:48:07.629Z,19.60
2019-04-01T15:50:38.323Z,18.07
2019-04-01T15:53:11.221Z,17.40
2019-04-01T15:55:43.559Z,18.57
2019-04-01T15:58:12.601Z,18.47
2019-04-01T16:00:42.064Z,18.53
2019-04-01T16:03:15.156Z,18.10
2019-04-01T16:05:45.611Z,17.73
2019-04-01T16:08:15.568Z,17.20
2019-04-01T16:10:44.951Z,16.97
2019-04-01T16:13:15.522Z,18.30
2019-04-01T16:16:07.070Z,17.03
2019-04-01T16:18:36.662Z,18.47
2019-04-01T16:21:05.927Z,17.30
2019-04-01T16:23:38.337Z,17.63
2019-04-01T16:26:09.524Z,17.17
2019-04-01T16:28:49.239Z,17.40
2019-04-01T16:31:18.445Z,17.03
2019-04-01T16:33:47.536Z,15.47
2019-04-01T16:36:16.594Z,17.30
2019-04-01T16:38:46.070Z,16.17
2019-04-01T16:41:18.424Z,17.47
2019-04-01T16:43:56.731Z,16.73
2019-04-01T16:46:25.811Z,16.27
2019-04-01T16:48:55.246Z,15.80
2019-04-01T16:51:25.924Z,17.40
2019-04-01T16:53:56.447Z,17.80
2019-04-01T16:56:28.310Z,17.10
2019-04-01T16:58:57.428Z,19.00
2019-04-01T17:01:27.687Z,17.80
2019-04-01T17:04:00.071Z,16.60
2019-04-01T17:06:29.224Z,18.00
2019-04-01T17:08:58.347Z,16.80
2019-04-01T17:11:28.507Z,16.13
2019-04-01T17:14:00.016Z,17.90
2019-04-01T17:16:29.160Z,17.60
2019-04-01T17:18:58.336Z,16.93
2019-04-01T17:21:27.463Z,17.33
2019-04-01T17:23:59.712Z,16.03
2019-04-01T17:26:28.773Z,16.67
2019-04-01T17:28:57.939Z,18.63
2019-04-01T17:31:27.067Z,17.43
2019-04-01T17:33:56.159Z,17.83
2019-04-01T17:36:25.319Z,17.37
2019-04-01T17:38:56.567Z,18.47
2019-04-01T17:41:25.636Z,16.80
2019-04-01T17:43:56.447Z,16.90
2019-04-01T17:46:29.278Z,17.57
2019-04-01T17:48:58.370Z,16.43
2019-04-01T17:51:27.462Z,16.40
2019-04-01T17:53:56.535Z,17.13
2019-04-01T17:56:27.475Z,16.13
2019-04-01T17:58:56.515Z,17.00
2019-04-01T18:01:25.643Z,18.70
2019-04-01T18:03:54.710Z,18.20
2019-04-01T18:06:24.100Z,18.60
2019-04-01T18:08:54.498Z,17.10
2019-04-01T18:11:23.693Z,17.30
2019-04-01T18:13:57.367Z,17.60
2019-04-01T18:16:26.482Z,17.13
2019-04-01T18:18:59.284Z,16.57
2019-04-01T18:21:28.414Z,16.97
2019-04-01T18:23:57.472Z,16.43
2019-04-01T18:26:30.966Z,17.87
2019-04-01T18:29:04.166Z,16.30
2019-04-01T18:31:44.442Z,17.07
2019-04-01T18:34:13.507Z,16.67
2019-04-01T18:36:42.562Z,17.30
2019-04-01T18:39:11.648Z,17.57
2019-04-01T18:41:40.733Z,15.73
2019-04-01T18:44:10.958Z,15.73
2019-04-01T18:46:41.137Z,17.13
2019-04-01T18:49:10.227Z,17.97
2019-04-01T18:51:42.873Z,16.10
2019-04-01T18:54:11.995Z,16.23
2019-04-01T18:56:41.064Z,17.40
2019-04-01T18:59:10.154Z,16.23
2019-04-01T19:01:39.515Z,15.13
2019-04-01T19:04:09.707Z,15.80
2019-04-01T19:06:40.638Z,16.63
2019-04-01T19:09:13.180Z,16.83
2019-04-01T19:11:43.543Z,15.63
2019-04-01T19:14:16.609Z,15.90
2019-04-01T19:16:47.466Z,15.73
2019-04-01T19:19:16.531Z,15.17
2019-04-01T19:21:45.818Z,14.83
2019-04-01T19:24:16.138Z,16.30
2019-04-01T19:26:47.694Z,14.77
2019-04-01T19:29:16.841Z,15.33
2019-04-01T19:31:45.928Z,15.07
2019-04-01T19:34:15.431Z,15.83
2019-04-01T19:36:48.956Z,15.33
2019-04-01T19:39:18.047Z,15.87
2019-04-01T19:41:49.044Z,16.20
2019-04-01T19:44:22.688Z,14.43
2019-04-01T19:46:51.957Z,15.10
2019-04-01T19:49:26.780Z,16.60
2019-04-01T19:51:57.719Z,16.17
2019-04-01T19:54:33.613Z,16.23
2019-04-01T19:57:03.153Z,14.30
2019-04-01T19:59:35.699Z,14.37
2019-04-01T20:02:09.730Z,14.77
2019-04-01T20:04:39.124Z,15.60
2019-04-01T20:07:10.775Z,15.93
2019-04-01T20:09:39.854Z,14.97
2019-04-01T20:12:10.104Z,15.07
2019-04-01T20:14:41.605Z,16.30
2019-04-01T20:17:19.215Z,15.70
2019-04-01T20:19:49.937Z,15.33
2019-04-01T20:22:19.075Z,14.93
2019-04-01T20:24:48.296Z,14.50
2019-04-01T20:27:23.037Z,16.47
2019-04-01T20:29:52.310Z,15.37
2019-04-01T20:32:22.786Z,15.77
2019-04-01T20:34:57.170Z,14.37
2019-04-01T20:37:23.762Z,15.40
2019-04-01T20:39:52.797Z,15.80
2019-04-01T20:42:22.967Z,16.30
2019-04-01T20:44:52.029Z,15.27
2019-04-01T20:47:21.125Z,16.23
2019-04-01T20:49:50.217Z,17.40
2019-04-01T20:52:26.780Z,17.17
2019-04-01T20:54:55.903Z,19.83
2019-04-01T20:57:24.981Z,18.73
2019-04-01T20:59:57.374Z,17.83
2019-04-01T21:02:28.052Z,18.27
2019-04-01T21:04:57.169Z,21.30
2019-04-01T21:07:26.229Z,18.70
2019-04-01T21:09:55.347Z,20.23
2019-04-01T21:12:24.405Z,18.53
2019-04-01T21:14:56.151Z,20.93
2019-04-01T21:17:25.382Z,20.03
2019-04-01T21:19:54.559Z,19.50
2019-04-01T21:22:23.604Z,19.53
2019-04-01T21:24:52.681Z,20.00
2019-04-01T21:27:23.174Z,18.30
2019-04-01T21:29:52.671Z,19.50
2019-04-01T21:32:21.778Z,18.67
2019-04-01T21:34:50.851Z,18.67
2019-04-01T21:37:19.917Z,20.53
2019-04-01T21:39:49.407Z,20.33
2019-04-01T21:42:22.964Z,18.80
2019-04-01T21:44:52.296Z,20.07
2019-04-01T21:47:25.511Z,18.83
2019-04-01T21:49:56.468Z,19.67
2019-04-01T21:52:26.784Z,20.30
2019-04-01T21:54:58.880Z,19.20
2019-04-01T21:57:30.077Z,21.40
2019-04-01T21:59:59.245Z,18.40
2019-04-01T22:02:40.436Z,20.60
2019-04-01T22:05:15.900Z,20.30
2019-04-01T22:07:48.241Z,20.60
2019-04-01T22:10:17.768Z,19.30
2019-04-01T22:12:46.818Z,21.20
2019-04-01T22:15:18.601Z,19.03
2019-04-01T22:18:01.038Z,19.97
2019-04-01T22:20:30.105Z,21.77
2019-04-01T22:23:00.440Z,19.97
2019-04-01T22:25:33.015Z,20.90
2019-04-01T22:28:02.114Z,20.83
2019-04-01T22:30:31.284Z,19.97
2019-04-01T22:33:00.336Z,22.43
2019-04-01T22:35:38.650Z,20.43
2019-04-01T22:38:00.389Z,20.50
2019-04-01T22:40:30.564Z,19.43
2019-04-01T22:43:01.287Z,20.87
2019-04-01T22:45:33.377Z,20.80
2019-04-01T22:48:11.579Z,20.07
2019-04-01T22:50:40.761Z,22.60
2019-04-01T22:53:09.835Z,21.23
2019-04-01T22:55:38.919Z,21.33
2019-04-01T22:58:08.003Z,20.23
2019-04-01T23:00:37.450Z,19.90
2019-04-01T23:03:07.082Z,20.67
2019-04-01T23:05:37.780Z,22.23
2019-04-01T23:08:07.401Z,21.47
2019-04-01T23:10:40.229Z,19.37
2019-04-01T23:13:09.308Z,21.87
2019-04-01T23:15:38.428Z,19.50
2019-04-01T23:18:07.540Z,20.10
2019-04-01T23:20:36.986Z,20.30
2019-04-01T23:23:09.628Z,21.60
2019-04-01T23:25:40.298Z,19.97
2019-04-01T23:28:11.686Z,21.50
2019-04-01T23:30:40.780Z,22.77
2019-04-01T23:33:09.868Z,21.90
2019-04-01T23:35:39.176Z,21.67
2019-04-01T23:38:11.428Z,20.30
2019-04-01T23:40:42.079Z,22.13
2019-04-01T23:43:11.231Z,22.17
2019-04-01T23:45:40.273Z,21.33
2019-04-01T23:48:11.178Z,20.83
2019-04-01T23:50:40.278Z,21.90
2019-04-01T23:53:11.128Z,21.10
2019-04-01T23:55:40.340Z,21.53
2019-04-01T23:58:09.445Z,21.87
